createdAt,value
2018-06-28T00:02:17.157Z,3.10
2018-06-28T00:04:47.737Z,2.30
2018-06-28T00:07:18.226Z,2.73
2018-06-28T00:09:48.612Z,2.33
2018-06-28T00:12:19.569Z,2.70
2018-06-28T00:14:50.025Z,3.00
2018-06-28T00:17:20.287Z,3.57
2018-06-28T00:19:52.371Z,2.70
2018-06-28T00:22:22.766Z,2.93
2018-06-28T00:24:53.041Z,3.20
2018-06-28T00:27:24.883Z,2.87
2018-06-28T00:29:55.084Z,2.83
2018-06-28T00:32:25.557Z,2.70
2018-06-28T00:34:55.892Z,3.90
2018-06-28T00:37:27.343Z,2.57
2018-06-28T00:39:57.768Z,3.40
2018-06-28T00:42:28.223Z,2.63
2018-06-28T00:44:58.724Z,3.40
2018-06-28T00:47:28.767Z,3.50
2018-06-28T00:49:58.924Z,3.23
2018-06-28T00:52:29.007Z,2.90
2018-06-28T00:54:59.199Z,3.40
2018-06-28T00:57:29.495Z,3.30
2018-06-28T00:59:59.812Z,3.27
2018-06-28T01:02:30.007Z,3.30
2018-06-28T01:05:00.167Z,2.90
2018-06-28T01:07:30.481Z,3.50
2018-06-28T01:10:01.682Z,2.90
2018-06-28T01:12:32.134Z,3.07
2018-06-28T01:15:02.575Z,3.20
2018-06-28T01:17:33.060Z,2.70
2018-06-28T01:20:03.115Z,3.33
2018-06-28T01:22:33.392Z,3.10
2018-06-28T01:25:03.795Z,3.23
2018-06-28T01:27:34.164Z,3.03
2018-06-28T01:30:05.322Z,3.63
2018-06-28T01:32:35.710Z,3.40
2018-06-28T01:35:07.684Z,3.33
2018-06-28T01:37:37.982Z,3.20
2018-06-28T01:40:08.324Z,3.50
2018-06-28T01:42:56.812Z,3.00
2018-06-28T01:45:27.584Z,3.20
2018-06-28T01:47:58.023Z,3.40
2018-06-28T01:50:30.268Z,3.80
2018-06-28T01:53:00.587Z,3.90
2018-06-28T01:55:31.695Z,3.13
2018-06-28T01:58:01.971Z,2.83
2018-06-28T02:00:33.175Z,3.67
2018-06-28T02:03:03.563Z,3.50
2018-06-28T02:05:33.840Z,3.00
2018-06-28T02:08:04.558Z,2.90
2018-06-28T02:10:34.972Z,3.63
2018-06-28T02:13:05.567Z,4.20
2018-06-28T02:15:36.918Z,3.37
2018-06-28T02:18:08.793Z,3.17
2018-06-28T02:20:40.331Z,3.00
2018-06-28T02:23:10.763Z,3.13
2018-06-28T02:25:41.084Z,3.90
2018-06-28T02:28:11.206Z,3.87
2018-06-28T02:30:42.925Z,3.67
2018-06-28T02:33:13.201Z,3.10
2018-06-28T02:35:44.490Z,3.90
2018-06-28T02:38:14.916Z,3.70
2018-06-28T02:40:46.159Z,3.90
2018-06-28T02:43:18.400Z,3.40
2018-06-28T02:45:48.812Z,3.63
2018-06-28T02:48:19.260Z,3.73
2018-06-28T02:50:49.607Z,4.63
2018-06-28T02:53:20.068Z,4.20
2018-06-28T02:55:50.326Z,3.80
2018-06-28T02:58:20.661Z,3.90
2018-06-28T03:00:50.983Z,4.20
2018-06-28T03:03:21.914Z,3.30
2018-06-28T03:05:51.982Z,4.00
2018-06-28T03:08:22.210Z,3.70
2018-06-28T03:10:52.513Z,4.13
2018-06-28T03:13:24.249Z,5.23
2018-06-28T03:15:54.765Z,3.60
2018-06-28T03:18:25.109Z,3.53
2018-06-28T03:20:56.133Z,4.00
2018-06-28T03:23:26.777Z,4.57
2018-06-28T03:25:57.177Z,3.37
2018-06-28T03:28:27.504Z,4.07
2018-06-28T03:31:00.032Z,3.80
2018-06-28T03:33:30.413Z,4.10
2018-06-28T03:36:01.389Z,4.20
2018-06-28T03:38:31.832Z,4.00
2018-06-28T03:41:02.315Z,4.53
2018-06-28T03:43:34.213Z,4.30
2018-06-28T03:46:04.938Z,3.90
2018-06-28T03:48:35.329Z,4.10
2018-06-28T03:51:06.072Z,4.20
2018-06-28T03:53:36.700Z,4.40
2018-06-28T03:56:06.995Z,4.37
2018-06-28T03:58:36.960Z,4.30
2018-06-28T04:01:07.280Z,5.17
2018-06-28T04:03:37.540Z,4.87
2018-06-28T04:06:09.055Z,6.27
2018-06-28T04:08:39.641Z,4.90
2018-06-28T04:11:09.987Z,5.03
2018-06-28T04:13:40.312Z,4.70
2018-06-28T04:16:10.841Z,4.87
2018-06-28T04:18:42.017Z,4.60
2018-06-28T04:21:12.388Z,4.53
2018-06-28T04:23:42.777Z,5.30
2018-06-28T04:26:17.162Z,5.23
2018-06-28T04:28:47.248Z,4.50
2018-06-28T04:31:17.428Z,4.97
2018-06-28T04:33:47.717Z,6.10
2018-06-28T04:36:18.077Z,5.27
2018-06-28T04:38:48.625Z,4.80
2018-06-28T04:41:19.012Z,4.70
2018-06-28T04:43:49.321Z,5.20
2018-06-28T04:46:19.724Z,4.50
2018-06-28T04:48:50.082Z,5.10
2018-06-28T04:51:20.554Z,4.70
2018-06-28T04:53:50.951Z,4.73
2018-06-28T04:56:21.685Z,5.27
2018-06-28T04:58:52.134Z,5.00
2018-06-28T05:01:22.538Z,4.43
2018-06-28T05:03:52.852Z,4.87
2018-06-28T05:06:23.087Z,4.70
2018-06-28T05:08:53.316Z,4.60
2018-06-28T05:11:24.480Z,5.10
2018-06-28T05:13:54.849Z,4.60
2018-06-28T05:16:25.179Z,4.10
2018-06-28T05:18:55.927Z,5.30
2018-06-28T05:21:26.369Z,4.20
2018-06-28T05:23:57.579Z,5.17
2018-06-28T05:26:28.013Z,5.20
2018-06-28T05:28:58.429Z,4.67
2018-06-28T05:31:28.996Z,4.47
2018-06-28T05:33:59.345Z,4.70
2018-06-28T05:36:29.385Z,4.17
2018-06-28T05:38:59.717Z,4.63
2018-06-28T05:41:30.240Z,4.50
2018-06-28T05:44:00.540Z,4.70
2018-06-28T05:46:30.971Z,3.77
2018-06-28T05:49:01.300Z,3.90
2018-06-28T05:51:31.792Z,3.97
2018-06-28T05:54:02.170Z,3.93
2018-06-28T05:56:32.719Z,4.20
2018-06-28T05:59:02.778Z,3.90
2018-06-28T06:01:33.064Z,3.57
2018-06-28T06:04:03.635Z,3.80
2018-06-28T06:06:33.999Z,3.80
2018-06-28T06:09:05.980Z,3.37
2018-06-28T06:11:36.572Z,3.63
2018-06-28T06:14:07.008Z,3.80
2018-06-28T06:16:37.855Z,3.73
2018-06-28T06:19:08.215Z,4.07
2018-06-28T06:21:38.698Z,3.50
2018-06-28T06:24:08.755Z,3.47
2018-06-28T06:26:39.562Z,3.30
2018-06-28T06:29:10.860Z,3.80
2018-06-28T06:31:41.265Z,3.23
2018-06-28T06:34:11.633Z,3.57
2018-06-28T06:36:41.939Z,3.60
2018-06-28T06:39:12.393Z,2.93
2018-06-28T06:41:43.003Z,3.10
2018-06-28T06:44:13.281Z,3.63
2018-06-28T06:46:43.693Z,3.30
2018-06-28T06:49:13.988Z,4.50
2018-06-28T06:51:44.383Z,3.97
2018-06-28T06:54:14.729Z,3.80
2018-06-28T06:56:45.644Z,3.13
2018-06-28T06:59:15.995Z,3.10
2018-06-28T07:01:46.380Z,3.40
2018-06-28T07:04:16.419Z,3.40
2018-06-28T07:06:46.657Z,3.80
2018-06-28T07:09:17.107Z,2.90
2018-06-28T07:11:47.665Z,3.80
2018-06-28T07:14:18.068Z,2.70
2018-06-28T07:16:48.415Z,2.77
2018-06-28T07:19:18.764Z,3.00
2018-06-28T07:21:49.080Z,3.53
2018-06-28T07:24:19.474Z,3.37
2018-06-28T07:26:49.909Z,3.73
2018-06-28T07:29:20.384Z,3.07
2018-06-28T07:31:51.670Z,2.67
2018-06-28T07:34:22.666Z,2.87
2018-06-28T07:36:53.236Z,3.10
2018-06-28T07:39:23.505Z,2.67
2018-06-28T07:41:53.609Z,3.33
2018-06-28T07:44:23.783Z,3.37
2018-06-28T07:46:54.326Z,3.07
2018-06-28T07:49:24.625Z,2.83
2018-06-28T07:51:54.956Z,2.87
2018-06-28T07:54:25.262Z,2.73
2018-06-28T07:56:55.915Z,3.50
2018-06-28T07:59:26.237Z,3.67
2018-06-28T08:01:56.747Z,2.90
2018-06-28T08:04:27.055Z,2.43
2018-06-28T08:06:57.912Z,3.00
2018-06-28T08:09:28.288Z,2.10
2018-06-28T08:11:59.316Z,2.67
2018-06-28T08:14:29.385Z,2.80
2018-06-28T08:16:59.527Z,1.97
2018-06-28T08:19:29.871Z,2.60
2018-06-28T08:22:00.225Z,3.20
2018-06-28T08:24:30.184Z,2.73
2018-06-28T08:27:00.737Z,2.50
2018-06-28T08:29:31.035Z,3.07
2018-06-28T08:32:01.556Z,2.80
2018-06-28T08:34:32.251Z,2.50
2018-06-28T08:37:02.536Z,2.40
2018-06-28T08:39:32.626Z,2.90
2018-06-28T08:42:02.834Z,2.40
2018-06-28T08:44:33.241Z,3.70
2018-06-28T08:47:03.688Z,2.90
2018-06-28T08:49:34.006Z,2.07
2018-06-28T08:52:04.312Z,1.93
2018-06-28T08:54:34.723Z,2.47
2018-06-28T08:57:05.048Z,1.90
2018-06-28T08:59:35.120Z,2.13
2018-06-28T09:02:05.252Z,2.30
2018-06-28T09:04:35.620Z,2.07
2018-06-28T09:07:05.960Z,2.17
2018-06-28T09:09:36.377Z,2.17
2018-06-28T09:12:06.752Z,2.07
2018-06-28T09:14:36.977Z,2.47
2018-06-28T09:17:07.180Z,2.17
2018-06-28T09:19:37.591Z,2.23
2018-06-28T09:22:07.920Z,2.50
2018-06-28T09:24:38.325Z,2.30
2018-06-28T09:27:08.703Z,1.77
2018-06-28T09:29:39.236Z,1.87
2018-06-28T09:32:09.637Z,2.13
2018-06-28T09:34:40.045Z,2.30
2018-06-28T09:37:10.396Z,2.43
2018-06-28T09:39:40.820Z,2.00
2018-06-28T09:42:10.855Z,2.20
2018-06-28T09:44:42.576Z,1.87
2018-06-28T09:47:12.947Z,2.03
2018-06-28T09:49:43.307Z,1.90
2018-06-28T09:52:13.645Z,2.40
2018-06-28T09:54:44.098Z,2.47
2018-06-28T09:57:14.476Z,2.30
2018-06-28T09:59:44.891Z,2.00
2018-06-28T10:02:15.180Z,2.20
2018-06-28T10:04:45.591Z,2.30
2018-06-28T10:07:15.760Z,2.17
2018-06-28T10:09:46.012Z,1.97
2018-06-28T10:12:16.307Z,1.97
2018-06-28T10:14:46.609Z,1.93
2018-06-28T10:17:16.892Z,2.57
2018-06-28T10:19:47.318Z,2.30
2018-06-28T10:22:18.007Z,1.80
2018-06-28T10:24:48.305Z,1.90
2018-06-28T10:27:18.652Z,1.70
2018-06-28T10:29:48.985Z,1.67
2018-06-28T10:32:19.992Z,1.63
2018-06-28T10:34:50.270Z,1.83
2018-06-28T10:37:20.592Z,1.90
2018-06-28T10:39:50.868Z,2.10
2018-06-28T10:42:21.192Z,1.90
2018-06-28T10:44:51.513Z,2.03
2018-06-28T10:47:21.800Z,1.80
2018-06-28T10:49:52.287Z,2.10
2018-06-28T10:52:22.612Z,1.93
2018-06-28T10:54:53.288Z,1.77
2018-06-28T10:57:23.584Z,2.17
2018-06-28T10:59:53.960Z,2.30
2018-06-28T11:02:24.259Z,2.10
2018-06-28T11:04:54.546Z,1.83
2018-06-28T11:07:24.659Z,1.87
2018-06-28T11:09:54.886Z,1.70
2018-06-28T11:12:25.180Z,1.80
2018-06-28T11:14:55.805Z,1.93
2018-06-28T11:17:26.107Z,1.97
2018-06-28T11:19:56.287Z,1.70
2018-06-28T11:22:26.726Z,2.30
2018-06-28T11:24:57.096Z,1.93
2018-06-28T11:27:28.147Z,1.70
2018-06-28T11:29:59.516Z,2.30
2018-06-28T11:32:30.011Z,1.67
2018-06-28T11:35:00.357Z,2.20
2018-06-28T11:37:30.708Z,1.90
2018-06-28T11:40:00.997Z,1.40
2018-06-28T11:42:31.717Z,1.67
2018-06-28T11:45:02.081Z,1.90
2018-06-28T11:47:32.406Z,1.73
2018-06-28T11:50:02.786Z,1.83
2018-06-28T11:52:33.308Z,1.77
2018-06-28T11:55:04.692Z,2.50
2018-06-28T11:57:34.989Z,1.57
2018-06-28T12:00:05.948Z,1.90
2018-06-28T12:02:36.501Z,2.00
2018-06-28T12:05:06.910Z,1.60
2018-06-28T12:07:37.209Z,1.53
2018-06-28T12:10:07.686Z,1.70
2018-06-28T12:12:38.265Z,1.63
2018-06-28T12:15:09.353Z,1.67
2018-06-28T12:17:39.668Z,1.70
2018-06-28T12:20:10.032Z,1.70
2018-06-28T12:22:40.953Z,2.00
2018-06-28T12:25:11.382Z,2.03
2018-06-28T12:27:41.716Z,1.63
2018-06-28T12:30:11.772Z,1.77
2018-06-28T12:32:42.073Z,1.80
2018-06-28T12:35:12.455Z,1.80
2018-06-28T12:37:42.916Z,1.60
2018-06-28T12:40:13.559Z,1.40
2018-06-28T12:42:43.960Z,1.30
2018-06-28T12:45:15.799Z,1.10
2018-06-28T12:48:11.412Z,1.30
2018-06-28T12:50:41.692Z,1.20
2018-06-28T12:53:13.643Z,1.33
2018-06-28T12:56:20.047Z,1.93
2018-06-28T12:58:51.737Z,1.67
2018-06-28T13:01:23.484Z,1.60
2018-06-28T13:03:53.750Z,1.60
2018-06-28T13:06:24.008Z,1.60
2018-06-28T13:08:55.240Z,1.60
2018-06-28T13:11:26.047Z,2.17
2018-06-28T13:13:56.448Z,3.13
2018-06-28T13:16:28.013Z,2.50
2018-06-28T13:18:58.364Z,2.70
2018-06-28T13:21:29.157Z,2.90
2018-06-28T13:23:59.664Z,2.73
2018-06-28T13:26:30.040Z,2.40
2018-06-28T13:29:00.392Z,2.07
2018-06-28T13:31:30.747Z,2.97
2018-06-28T13:34:01.356Z,2.80
2018-06-28T13:36:31.805Z,2.67
2018-06-28T13:39:02.159Z,3.93
2018-06-28T13:41:32.657Z,2.90
2018-06-28T13:44:02.840Z,2.50
2018-06-28T13:46:33.612Z,3.33
2018-06-28T13:49:04.124Z,2.90
2018-06-28T13:51:34.341Z,3.20
2018-06-28T13:54:04.741Z,2.43
2018-06-28T13:56:35.218Z,3.60
2018-06-28T13:59:06.219Z,4.77
2018-06-28T14:01:37.149Z,4.93
2018-06-28T14:04:07.647Z,4.27
2018-06-28T14:06:38.124Z,3.27
2018-06-28T14:09:11.897Z,2.70
2018-06-28T14:11:42.589Z,1.80
2018-06-28T14:14:13.008Z,1.67
2018-06-28T14:16:43.381Z,1.50
2018-06-28T14:19:13.466Z,1.63
2018-06-28T14:21:43.788Z,1.77
2018-06-28T14:24:14.134Z,1.67
2018-06-28T14:26:44.314Z,1.60
2018-06-28T14:29:14.466Z,1.70
2018-06-28T14:31:44.791Z,1.87
2018-06-28T14:34:15.105Z,1.60
2018-06-28T14:36:45.475Z,1.93
2018-06-28T14:39:15.987Z,1.53
2018-06-28T14:41:47.370Z,1.77
2018-06-28T14:44:17.755Z,2.30
2018-06-28T14:46:48.122Z,1.60
2018-06-28T14:49:18.158Z,1.97
2018-06-28T14:51:48.338Z,1.60
2018-06-28T14:54:18.767Z,1.90
2018-06-28T14:56:49.170Z,1.60
2018-06-28T14:59:19.454Z,2.13
2018-06-28T15:01:49.829Z,1.80
2018-06-28T15:04:19.951Z,1.80
2018-06-28T15:06:50.167Z,1.63
2018-06-28T15:09:20.501Z,1.77
2018-06-28T15:11:50.921Z,1.60
2018-06-28T15:14:21.024Z,1.53
2018-06-28T15:16:52.701Z,2.07
2018-06-28T15:19:23.084Z,1.90
2018-06-28T15:21:53.456Z,1.87
2018-06-28T15:24:23.547Z,1.97
2018-06-28T15:26:53.863Z,1.80
2018-06-28T15:29:27.435Z,1.93
2018-06-28T15:31:57.778Z,2.00
2018-06-28T15:34:28.209Z,1.97
2018-06-28T15:36:58.287Z,1.90
2018-06-28T15:39:28.539Z,2.10
2018-06-28T15:41:58.858Z,1.63
2018-06-28T15:44:30.202Z,1.70
2018-06-28T15:47:00.584Z,1.83
2018-06-28T15:49:31.330Z,2.43
2018-06-28T15:52:01.774Z,1.77
2018-06-28T15:54:32.099Z,1.90
2018-06-28T15:57:03.930Z,2.00
2018-06-28T15:59:33.957Z,2.73
2018-06-28T16:02:04.277Z,1.60
2018-06-28T16:04:34.596Z,1.73
2018-06-28T16:07:05.268Z,1.90
2018-06-28T16:09:35.622Z,1.73
2018-06-28T16:12:06.074Z,2.47
2018-06-28T16:14:36.493Z,1.60
2018-06-28T16:17:07.891Z,1.90
2018-06-28T16:19:38.359Z,2.57
2018-06-28T16:22:08.778Z,2.25
2018-06-28T16:24:39.197Z,12.30
2018-06-28T16:27:09.472Z,5.87
2018-06-28T16:29:39.909Z,5.97
2018-06-28T16:32:10.374Z,2.30
2018-06-28T16:34:42.152Z,2.43
2018-06-28T16:37:12.603Z,1.60
2018-06-28T16:39:42.925Z,1.80
2018-06-28T16:42:12.989Z,1.60
2018-06-28T16:44:43.251Z,1.70
2018-06-28T16:47:13.568Z,1.43
2018-06-28T16:49:43.839Z,1.63
2018-06-28T16:52:14.115Z,1.50
2018-06-28T16:54:45.126Z,1.53
2018-06-28T16:57:15.423Z,2.10
2018-06-28T16:59:45.873Z,1.90
2018-06-28T17:02:16.160Z,2.07
2018-06-28T17:04:46.780Z,1.90
2018-06-28T17:07:17.054Z,1.83
2018-06-28T17:09:47.386Z,1.47
2018-06-28T17:12:17.836Z,1.83
2018-06-28T17:14:48.190Z,1.60
2018-06-28T17:17:18.540Z,1.73
2018-06-28T17:19:48.808Z,2.30
2018-06-28T17:22:19.323Z,1.93
2018-06-28T17:24:49.634Z,1.40
2018-06-28T17:27:19.983Z,2.40
2018-06-28T17:29:50.341Z,1.60
2018-06-28T17:32:20.825Z,2.20
2018-06-28T17:34:51.235Z,1.73
2018-06-28T17:37:21.696Z,1.40
2018-06-28T17:39:52.061Z,1.77
2018-06-28T17:42:22.553Z,1.70
2018-06-28T17:44:53.877Z,2.07
2018-06-28T17:47:24.075Z,1.90
2018-06-28T17:49:54.437Z,2.03
2018-06-28T17:52:24.307Z,2.10
2018-06-28T17:54:54.455Z,1.80
2018-06-28T17:57:24.928Z,1.70
2018-06-28T17:59:55.534Z,1.90
2018-06-28T18:02:26.450Z,1.80
2018-06-28T18:04:56.965Z,1.70
2018-06-28T18:07:27.275Z,1.90
2018-06-28T18:09:57.648Z,2.97
2018-06-28T18:12:28.098Z,2.03
2018-06-28T18:14:58.839Z,1.70
2018-06-28T18:17:29.220Z,2.33
2018-06-28T18:19:59.554Z,3.93
2018-06-28T18:22:29.964Z,3.13
2018-06-28T18:25:00.368Z,2.10
2018-06-28T18:27:30.765Z,1.70
2018-06-28T18:30:01.107Z,1.63
2018-06-28T18:32:31.443Z,1.90
2018-06-28T18:35:01.962Z,1.47
2018-06-28T18:37:32.395Z,2.10
2018-06-28T18:40:02.758Z,1.50
2018-06-28T18:42:34.370Z,2.17
2018-06-28T18:45:05.162Z,1.60
2018-06-28T18:47:35.633Z,2.00
2018-06-28T18:50:06.048Z,1.90
2018-06-28T18:52:36.364Z,1.77
2018-06-28T18:55:06.958Z,1.60
2018-06-28T18:57:39.036Z,2.17
2018-06-28T19:00:09.452Z,1.70
2018-06-28T19:02:39.745Z,1.60
2018-06-28T19:05:10.158Z,1.90
2018-06-28T19:07:40.531Z,2.70
2018-06-28T19:10:16.204Z,1.50
2018-06-28T19:12:46.666Z,2.70
2018-06-28T19:15:22.490Z,3.40
2018-06-28T19:17:53.063Z,1.83
2018-06-28T19:20:23.435Z,1.97
2018-06-28T19:22:58.895Z,1.50
2018-06-28T19:25:29.317Z,1.93
2018-06-28T19:27:59.535Z,3.17
2018-06-28T19:30:35.198Z,5.47
2018-06-28T19:33:05.501Z,3.13
2018-06-28T19:35:35.731Z,2.60
2018-06-28T19:38:06.211Z,2.50
2018-06-28T19:40:41.592Z,2.30
2018-06-28T19:43:11.845Z,1.60
2018-06-28T19:45:42.219Z,1.60
2018-06-28T19:48:12.625Z,2.00
2018-06-28T19:50:48.221Z,1.70
2018-06-28T19:53:18.733Z,2.60
2018-06-28T19:55:49.244Z,3.47
2018-06-28T19:58:22.043Z,2.93
2018-06-28T20:00:57.813Z,2.10
2018-06-28T20:03:33.926Z,1.77
2018-06-28T20:06:04.649Z,1.40
2018-06-28T20:08:35.212Z,2.03
2018-06-28T20:11:05.603Z,1.90
2018-06-28T20:13:41.101Z,2.20
2018-06-28T20:16:16.916Z,2.15
2018-06-28T20:18:52.698Z,2.37
2018-06-28T20:21:23.217Z,1.83
2018-06-28T20:23:53.721Z,2.23
2018-06-28T20:26:30.182Z,1.80
2018-06-28T20:29:05.834Z,2.00
2018-06-28T20:31:42.800Z,1.77
2018-06-28T20:34:13.712Z,2.53
2018-06-28T20:36:44.278Z,1.60
2018-06-28T20:39:14.742Z,1.90
2018-06-28T20:41:45.083Z,1.53
2018-06-28T20:44:15.441Z,1.63
2018-06-28T20:46:45.812Z,2.00
2018-06-28T20:49:16.189Z,1.70
2018-06-28T20:51:46.492Z,1.63
2018-06-28T20:54:16.987Z,1.80
2018-06-28T20:56:47.836Z,2.30
2018-06-28T20:59:18.183Z,1.80
2018-06-28T21:01:49.467Z,1.80
2018-06-28T21:04:19.764Z,2.33
2018-06-28T21:06:50.159Z,2.47
2018-06-28T21:09:20.464Z,1.90
2018-06-28T21:11:50.829Z,2.13
2018-06-28T21:14:22.070Z,1.80
2018-06-28T21:16:52.441Z,2.27
2018-06-28T21:19:22.880Z,2.00
2018-06-28T21:21:53.241Z,2.70
2018-06-28T21:24:24.546Z,2.07
2018-06-28T21:26:54.991Z,2.30
2018-06-28T21:29:25.300Z,2.10
2018-06-28T21:31:55.646Z,2.00
2018-06-28T21:34:26.136Z,1.60
2018-06-28T21:36:56.443Z,1.93
2018-06-28T21:39:26.715Z,2.23
2018-06-28T21:41:57.077Z,1.80
2018-06-28T21:44:27.993Z,2.43
2018-06-28T21:46:58.415Z,1.97
2018-06-28T21:49:28.441Z,2.10
2018-06-28T21:51:58.667Z,2.50
2018-06-28T21:54:29.667Z,2.00
2018-06-28T21:57:00.127Z,2.10
2018-06-28T21:59:30.847Z,2.30
2018-06-28T22:02:01.120Z,1.70
2018-06-28T22:04:31.483Z,1.73
2018-06-28T22:07:01.867Z,1.80
2018-06-28T22:09:32.181Z,1.90
2018-06-28T22:12:02.457Z,2.03
2018-06-28T22:14:32.652Z,2.00
2018-06-28T22:17:02.940Z,2.70
2018-06-28T22:19:33.189Z,2.10
2018-06-28T22:22:03.696Z,2.33
2018-06-28T22:24:34.267Z,1.97
2018-06-28T22:27:04.634Z,1.97
2018-06-28T22:29:35.010Z,1.90
2018-06-28T22:32:05.456Z,2.10
2018-06-28T22:34:35.872Z,2.20
2018-06-28T22:37:06.291Z,1.73
2018-06-28T22:39:36.278Z,1.87
2018-06-28T22:42:06.509Z,2.13
2018-06-28T22:44:37.046Z,2.20
2018-06-28T22:47:07.416Z,2.37
2018-06-28T22:49:37.747Z,2.07
2018-06-28T22:52:08.498Z,2.13
2018-06-28T22:54:39.150Z,2.20
2018-06-28T22:57:09.533Z,2.00
2018-06-28T22:59:39.941Z,2.23
2018-06-28T23:02:11.334Z,2.47
2018-06-28T23:04:42.674Z,2.13
2018-06-28T23:07:12.904Z,2.47
2018-06-28T23:09:43.469Z,2.30
2018-06-28T23:12:13.776Z,2.03
2018-06-28T23:14:43.895Z,2.37
2018-06-28T23:17:14.052Z,2.80
2018-06-28T23:22:51.585Z,1.70
2018-06-28T23:25:22.263Z,2.43
2018-06-28T23:27:52.619Z,2.80
2018-06-28T23:30:23.048Z,2.40
2018-06-28T23:32:53.344Z,2.07
2018-06-28T23:35:24.537Z,2.30
2018-06-28T23:37:55.044Z,2.87
2018-06-28T23:40:25.326Z,2.60
2018-06-28T23:42:55.323Z,2.53
2018-06-28T23:45:26.023Z,3.40
2018-06-28T23:47:56.444Z,2.40
2018-06-28T23:50:26.737Z,2.73
2018-06-28T23:52:56.804Z,2.37
2018-06-28T23:55:26.796Z,2.23
2018-06-28T23:57:57.080Z,2.50
